Teos — 3EBV5 — position and weather

sailwx.info

Track history (hours):
 
Tides and Currents Weather Stations Pressure Air Temp Water Temp Dewpoint Dewpoint Depression Visibility Wind Speed Wind Dir Waves Ship Positions

Teos

Last reported at 2017-Nov-25 09:06 UTC. Time now 2017-Nov-25 11:37 UTC.
Position S 04°52' E 011°38'.

Length 101 m; draft 5.9 m.

Type: Cargo ship. MMSI: 356562000.

Date/timePositionNaut miles runAvg speedWind from/ knotsBaromVisibWave heightAir tempDewpointWater temp
2017-Nov-25 09:06S 04°52' E 011°38'212.4
2017-Nov-25 08:58S 04°53' E 011°37'611.9
2017-Nov-25 08:29S 04°57' E 011°32'612.8
2017-Nov-25 08:00S 05°03' E 011°30'612.1
2017-Nov-25 07:30S 05°05' E 011°25'612.5
2017-Nov-25 07:00S 05°06' E 011°19'612.4
2017-Nov-25 06:30S 05°07' E 011°12'611.9
2017-Nov-25 06:00S 05°05' E 011°07'612.1
2017-Nov-25 05:30S 05°02' E 011°01'  
Track history (hours):
 
Tides and Currents Weather Stations Pressure Air Temp Water Temp Dewpoint Dewpoint Depression Visibility Wind Speed Wind Dir Waves Ship Positions

Teos

Last reported at 2017-Nov-25 09:06 UTC. Time now 2017-Nov-25 11:37 UTC.
Position S 04°52' E 011°38'.

Length 101 m; draft 5.9 m.

Type: Cargo ship. MMSI: 356562000.

Date/timePositionNaut miles runAvg speedWind from/ knotsBaromVisibWave heightAir tempDewpointWater temp
2017-Nov-25 09:06S 04°52' E 011°38'212.4
2017-Nov-25 08:58S 04°53' E 011°37'611.9
2017-Nov-25 08:29S 04°57' E 011°32'612.8
2017-Nov-25 08:00S 05°03' E 011°30'612.1
2017-Nov-25 07:30S 05°05' E 011°25'612.5
2017-Nov-25 07:00S 05°06' E 011°19'612.4
2017-Nov-25 06:30S 05°07' E 011°12'611.9
2017-Nov-25 06:00S 05°05' E 011°07'612.1
2017-Nov-25 05:30S 05°02' E 011°01'  

Dump ship's entire track history